Terminal Aerodrome Forecast
Issued by NWS Sterling, VA

Home | Current Version | Previous Version | Text Only | Print | Product List | Glossary On
Versions: 1 2 3 4 5 6 7 8 9 10 11 12 13 14 15 16 17 18 19 20
068
FTUS41 KLWX 262341 AAB
TAFIAD
TAF AMD
KIAD 262341Z 2700/2806 18005KT P6SM VCTS SCT060CB
     FM270200 18004KT P6SM SCT070
     FM271100 20007KT P6SM SCT070
     FM280000 18006KT P6SM BKN060 BKN080
     FM280400 18005KT P6SM FEW060 SCT080=

USA.gov is the U.S. government's official web portal to all federal, state and local government web resources and services.